Time;durP1;ratioP1;P1;durP2;ratioP2;P2;SDS_P1;SDS_P2;PMS_P1;PMS_P2;Temp;Humidity;BMP_temperature;BMP_pressure;BME280_temperature;BME280_humidity;BME280_pressure;Samples;Min_cycle;Max_cycle;Signal;HPM_P1;HPM_P2
2022/04/07 00:00:55;;;;;;;0.80;0.40;;;10.70;99.90;;;;;;5049980;28;20589;-73
2022/04/07 00:03:20;;;;;;;0.70;0.40;;;10.70;99.90;;;;;;5049839;28;20263;-74
2022/04/07 00:05:46;;;;;;;1.10;0.53;;;10.70;99.90;;;;;;5049807;28;20250;-74
2022/04/07 00:08:12;;;;;;;0.70;0.40;;;10.70;99.90;;;;;;5048934;28;20192;-74
2022/04/07 00:10:38;;;;;;;0.60;0.40;;;10.60;99.90;;;;;;5051305;28;20466;-76
2022/04/07 00:13:04;;;;;;;0.70;0.50;;;10.50;99.90;;;;;;5049785;28;20677;-76
2022/04/07 00:15:31;;;;;;;0.90;0.50;;;10.50;99.90;;;;;;5049754;28;20443;-75
2022/04/07 00:17:57;;;;;;;0.90;0.40;;;10.40;99.90;;;;;;5049783;28;20415;-76
2022/04/07 00:20:24;;;;;;;0.60;0.40;;;10.40;99.90;;;;;;5049848;28;20473;-74
2022/04/07 00:22:50;;;;;;;1.30;0.50;;;10.30;99.90;;;;;;5049793;28;20809;-74
2022/04/07 00:25:16;;;;;;;0.70;0.40;;;10.30;99.90;;;;;;5049380;28;20520;-73
2022/04/07 00:27:42;;;;;;;0.70;0.50;;;10.30;99.90;;;;;;5049316;28;20988;-74
2022/04/07 00:30:10;;;;;;;0.80;0.60;;;10.20;99.90;;;;;;5048819;28;20496;-75
2022/04/07 00:32:43;;;;;;;2.00;0.47;;;10.20;99.90;;;;;;5048614;28;20732;-75
2022/04/07 00:35:09;;;;;;;1.53;0.53;;;10.10;99.90;;;;;;5047282;28;20754;-74
2022/04/07 00:37:35;;;;;;;0.90;0.80;;;10.10;99.90;;;;;;5048514;28;20472;-75
2022/04/07 00:40:02;;;;;;;1.00;0.80;;;10.10;99.90;;;;;;5030422;28;20435;-76
2022/04/07 00:42:27;;;;;;;0.70;0.40;;;10.10;99.90;;;;;;5046957;28;20234;-77
2022/04/07 00:44:53;;;;;;;1.00;0.50;;;10.10;99.90;;;;;;5048355;28;20487;-72
2022/04/07 00:47:19;;;;;;;0.70;0.40;;;10.10;99.90;;;;;;5048319;28;20210;-75
2022/04/07 00:49:45;;;;;;;0.70;0.50;;;10.00;99.90;;;;;;5047110;28;20185;-75
2022/04/07 00:52:12;;;;;;;0.60;0.40;;;9.90;99.90;;;;;;5046753;28;20983;-75
2022/04/07 00:54:39;;;;;;;0.70;0.60;;;9.90;99.90;;;;;;5046835;28;20648;-74
2022/04/07 00:57:06;;;;;;;0.70;0.50;;;9.90;99.90;;;;;;5048273;28;20420;-73
2022/04/07 00:59:34;;;;;;;0.80;0.43;;;9.90;99.90;;;;;;5048418;28;21224;-75
2022/04/07 01:02:00;;;;;;;0.90;0.53;;;9.80;99.90;;;;;;5048290;28;20460;-75
2022/04/07 01:04:26;;;;;;;0.70;0.40;;;9.80;99.90;;;;;;5048075;28;21029;-74
2022/04/07 01:06:52;;;;;;;0.67;0.40;;;9.70;99.90;;;;;;5046896;28;20513;-73
2022/04/07 01:09:19;;;;;;;0.70;0.50;;;9.70;99.90;;;;;;5048636;28;20544;-73
2022/04/07 01:11:46;;;;;;;0.83;0.50;;;9.60;99.90;;;;;;5046806;28;20567;-74
2022/04/07 01:14:11;;;;;;;0.70;0.50;;;9.60;99.90;;;;;;5048208;28;20465;-73
2022/04/07 01:16:37;;;;;;;0.90;0.50;;;9.50;99.90;;;;;;5048087;28;20439;-73
2022/04/07 01:19:03;;;;;;;1.37;0.57;;;9.40;99.90;;;;;;5046672;28;20192;-73
2022/04/07 01:21:32;;;;;;;0.67;0.47;;;9.50;99.90;;;;;;5046593;28;20564;-73
2022/04/07 01:24:09;;;;;;;0.80;0.50;;;9.50;99.90;;;;;;5047869;28;20430;-74
2022/04/07 01:26:40;;;;;;;0.70;0.50;;;9.40;99.90;;;;;;5047961;28;20444;-73
2022/04/07 01:29:11;;;;;;;4.10;0.60;;;9.40;99.90;;;;;;5048298;28;20529;-73
2022/04/07 01:31:38;;;;;;;0.90;0.53;;;9.40;99.90;;;;;;5046628;28;20427;-73
2022/04/07 01:34:07;;;;;;;0.90;0.50;;;9.40;99.90;;;;;;5046514;28;20469;-73
2022/04/07 01:36:36;;;;;;;0.70;0.50;;;9.40;99.90;;;;;;5047770;28;20438;-73
2022/04/07 01:39:03;;;;;;;0.77;0.63;;;9.40;99.90;;;;;;5047880;28;20419;-73
2022/04/07 01:41:30;;;;;;;0.97;0.70;;;9.40;99.90;;;;;;5047862;28;20419;-73
2022/04/07 01:43:58;;;;;;;0.90;0.70;;;9.30;99.90;;;;;;5047865;28;20422;-73
2022/04/07 01:46:24;;;;;;;1.10;0.60;;;9.30;99.90;;;;;;5048340;28;20473;-73
2022/04/07 01:48:53;;;;;;;0.90;0.53;;;9.30;99.90;;;;;;5048332;28;20418;-73
2022/04/07 01:51:21;;;;;;;0.70;0.50;;;9.40;99.90;;;;;;5048176;28;20995;-73
2022/04/07 01:53:48;;;;;;;1.00;0.60;;;9.40;99.90;;;;;;5048027;28;20471;-73
2022/04/07 01:56:15;;;;;;;1.63;0.60;;;9.40;99.90;;;;;;5047915;28;20470;-73
2022/04/07 01:58:41;;;;;;;1.13;0.60;;;9.40;99.90;;;;;;5048146;28;20763;-73
2022/04/07 02:01:06;;;;;;;2.37;0.57;;;9.40;99.90;;;;;;5046537;28;20418;-73
2022/04/07 02:03:32;;;;;;;0.70;0.50;;;9.50;99.90;;;;;;5048272;28;20422;-73
2022/04/07 02:06:18;;;;;;;0.80;0.60;;;9.60;99.90;;;;;;5049537;28;20759;-73
2022/04/07 02:08:45;;;;;;;0.90;0.80;;;9.50;99.90;;;;;;5051624;28;20187;-72
2022/04/07 02:11:11;;;;;;;1.10;0.50;;;9.50;99.90;;;;;;5051671;28;20452;-74
2022/04/07 02:13:41;;;;;;;0.80;0.60;;;9.50;99.90;;;;;;5051803;28;20464;-73
2022/04/07 02:16:08;;;;;;;0.80;0.80;;;9.60;99.90;;;;;;5051356;28;20207;-74
2022/04/07 02:18:34;;;;;;;1.47;0.70;;;9.60;99.90;;;;;;5051336;28;20855;-73
2022/04/07 02:21:00;;;;;;;0.80;0.50;;;9.60;99.90;;;;;;5051266;28;20418;-73
2022/04/07 02:23:28;;;;;;;0.70;0.50;;;9.60;99.90;;;;;;5051357;28;20887;-73
2022/04/07 02:25:54;;;;;;;0.70;0.60;;;9.60;99.90;;;;;;5052526;28;20207;-74
2022/04/07 02:28:20;;;;;;;0.70;0.50;;;9.60;99.90;;;;;;5051186;28;20418;-74
2022/04/07 02:30:46;;;;;;;0.77;0.53;;;9.60;99.90;;;;;;5051244;28;20184;-74
2022/04/07 02:33:12;;;;;;;1.10;0.73;;;9.60;99.90;;;;;;5049807;28;20302;-73
2022/04/07 02:35:38;;;;;;;0.70;0.50;;;9.50;99.90;;;;;;5050965;28;20557;-73
2022/04/07 02:38:04;;;;;;;1.17;0.77;;;9.50;99.90;;;;;;5051133;28;20427;-73
2022/04/07 02:40:29;;;;;;;0.80;0.70;;;9.50;99.90;;;;;;5050867;28;20418;-73
2022/04/07 02:42:55;;;;;;;0.70;0.57;;;9.50;99.90;;;;;;5051002;28;20435;-75
2022/04/07 02:45:21;;;;;;;1.13;0.70;;;9.50;99.90;;;;;;5051016;28;20211;-75
2022/04/07 02:47:46;;;;;;;0.73;0.50;;;9.40;99.90;;;;;;5060978;28;20178;-74
2022/04/07 02:50:12;;;;;;;1.27;0.50;;;9.50;99.90;;;;;;5065041;28;20238;-75
2022/04/07 02:52:38;;;;;;;1.43;0.63;;;9.40;99.90;;;;;;5052387;28;20193;-74
2022/04/07 02:55:04;;;;;;;0.80;0.60;;;9.40;99.90;;;;;;5051934;28;20474;-73
2022/04/07 02:57:33;;;;;;;0.93;0.67;;;9.40;99.90;;;;;;5051026;28;20214;-73
2022/04/07 02:59:59;;;;;;;0.70;0.50;;;9.30;99.90;;;;;;5050771;28;20473;-73
2022/04/07 03:02:26;;;;;;;0.70;0.40;;;9.40;99.90;;;;;;5051052;28;20450;-73
2022/04/07 03:04:51;;;;;;;0.70;0.50;;;9.40;99.90;;;;;;5050453;28;20470;-73
2022/04/07 03:07:17;;;;;;;0.70;0.40;;;9.30;99.90;;;;;;5049117;28;20424;-73
2022/04/07 03:09:43;;;;;;;1.03;0.50;;;9.30;99.90;;;;;;5050541;28;20187;-73
2022/04/07 03:12:09;;;;;;;1.47;0.40;;;9.30;99.90;;;;;;5050342;28;20418;-73
2022/04/07 03:14:35;;;;;;;1.00;0.50;;;9.30;99.90;;;;;;5048941;28;20236;-73
2022/04/07 03:17:02;;;;;;;0.73;0.67;;;9.40;99.90;;;;;;5048875;28;21142;-73
2022/04/07 03:19:27;;;;;;;0.80;0.50;;;9.40;99.90;;;;;;5048659;28;20445;-74
2022/04/07 03:21:53;;;;;;;0.80;0.53;;;9.50;99.90;;;;;;5049525;28;21221;-74
2022/04/07 03:24:18;;;;;;;0.77;0.60;;;9.40;99.90;;;;;;5049134;28;20214;-75
2022/04/07 03:26:44;;;;;;;0.70;0.50;;;9.50;99.90;;;;;;5049993;28;20261;-75
2022/04/07 03:29:10;;;;;;;0.67;0.40;;;9.50;99.90;;;;;;5050057;28;20190;-76
2022/04/07 03:31:35;;;;;;;0.70;0.50;;;9.50;99.90;;;;;;5050099;28;20184;-76
2022/04/07 03:34:01;;;;;;;0.70;0.50;;;9.50;99.90;;;;;;5048496;28;20222;-76
2022/04/07 03:36:27;;;;;;;1.10;0.40;;;9.50;99.90;;;;;;5048244;28;20737;-74
2022/04/07 03:38:53;;;;;;;2.03;0.63;;;9.50;99.90;;;;;;5049970;28;20172;-74
2022/04/07 03:41:18;;;;;;;0.87;0.63;;;9.50;99.90;;;;;;5049828;28;20181;-74
2022/04/07 03:43:44;;;;;;;4.10;0.67;;;9.60;99.90;;;;;;5049637;28;20515;-74
2022/04/07 03:46:11;;;;;;;0.80;0.43;;;9.60;99.90;;;;;;5048520;28;20206;-75
2022/04/07 03:48:36;;;;;;;1.63;0.50;;;9.60;99.90;;;;;;5049626;28;20719;-74
2022/04/07 03:51:02;;;;;;;2.13;0.53;;;9.60;99.90;;;;;;5049672;28;20421;-74
2022/04/07 03:53:28;;;;;;;0.90;0.60;;;9.70;99.90;;;;;;5049449;28;20207;-73
2022/04/07 03:55:54;;;;;;;0.60;0.50;;;9.70;99.90;;;;;;5049535;28;20461;-73
2022/04/07 03:58:19;;;;;;;1.70;0.40;;;9.70;99.90;;;;;;5049517;28;20834;-75
2022/04/07 04:00:45;;;;;;;0.93;0.50;;;9.80;99.90;;;;;;5049397;28;20227;-75
2022/04/07 04:03:11;;;;;;;1.57;0.63;;;9.80;99.90;;;;;;5049163;28;20530;-75
2022/04/07 04:05:36;;;;;;;0.97;0.87;;;9.80;99.90;;;;;;5048044;28;20301;-76
2022/04/07 04:08:02;;;;;;;1.07;0.60;;;9.70;99.90;;;;;;5049304;28;20186;-76
2022/04/07 04:10:28;;;;;;;0.70;0.50;;;9.70;99.90;;;;;;5049292;28;20195;-76
2022/04/07 04:12:54;;;;;;;0.80;0.50;;;9.80;99.90;;;;;;5049316;28;21249;-76
2022/04/07 04:15:20;;;;;;;1.53;0.50;;;9.70;99.90;;;;;;5047555;28;20221;-76
2022/04/07 04:17:45;;;;;;;1.13;0.50;;;9.80;99.90;;;;;;5047990;28;20186;-76
2022/04/07 04:20:11;;;;;;;0.70;0.50;;;9.70;99.90;;;;;;5048010;28;20188;-76
2022/04/07 04:22:37;;;;;;;0.70;0.50;;;9.70;99.90;;;;;;5046019;28;20182;-76
2022/04/07 04:25:04;;;;;;;0.70;0.53;;;9.70;99.90;;;;;;5047656;28;20442;-77
2022/04/07 04:27:29;;;;;;;1.33;0.70;;;9.70;99.90;;;;;;5046111;28;20428;-76
2022/04/07 04:29:56;;;;;;;0.80;0.50;;;9.70;99.90;;;;;;5047323;28;20430;-76
2022/04/07 04:32:22;;;;;;;1.57;0.57;;;9.70;99.90;;;;;;5047642;28;20211;-76
2022/04/07 04:34:47;;;;;;;1.20;0.50;;;9.70;99.90;;;;;;5047598;28;20570;-75
2022/04/07 04:37:13;;;;;;;3.13;0.60;;;9.60;99.90;;;;;;5047686;28;20418;-75
2022/04/07 04:39:38;;;;;;;1.63;0.50;;;9.60;99.90;;;;;;5029804;28;20648;-75
2022/04/07 04:42:05;;;;;;;0.70;0.40;;;9.60;99.90;;;;;;5047609;28;20259;-75
2022/04/07 04:44:31;;;;;;;1.97;0.50;;;9.60;99.90;;;;;;5047723;28;20177;-76
2022/04/07 04:46:57;;;;;;;0.60;0.30;;;9.60;99.90;;;;;;5047592;28;20426;-75
2022/04/07 04:49:23;;;;;;;0.67;0.50;;;9.60;99.90;;;;;;5047721;28;20425;-74
2022/04/07 04:51:48;;;;;;;0.90;0.40;;;9.60;99.90;;;;;;5047658;28;20188;-75
2022/04/07 04:54:14;;;;;;;0.70;0.47;;;9.60;99.90;;;;;;5047652;28;20242;-75
2022/04/07 04:56:41;;;;;;;0.70;0.40;;;9.70;99.90;;;;;;5047615;28;20897;-76
2022/04/07 04:59:07;;;;;;;0.97;0.40;;;9.60;99.90;;;;;;5046506;28;20431;-76
2022/04/07 05:01:33;;;;;;;1.20;0.40;;;9.70;99.90;;;;;;5047361;28;20963;-76
2022/04/07 05:03:59;;;;;;;0.60;0.47;;;9.80;99.90;;;;;;5047628;28;20426;-76
2022/04/07 05:06:25;;;;;;;0.60;0.40;;;9.80;99.90;;;;;;5047342;28;20519;-76
2022/04/07 05:08:50;;;;;;;0.63;0.40;;;9.80;99.90;;;;;;5029539;28;20279;-76
2022/04/07 05:11:16;;;;;;;0.70;0.40;;;9.80;99.90;;;;;;5047861;28;20677;-76
2022/04/07 05:13:41;;;;;;;0.70;0.40;;;9.90;99.90;;;;;;5029723;28;20212;-75
2022/04/07 05:16:15;;;;;;;0.60;0.40;;;9.90;99.90;;;;;;5047295;28;20310;-75
2022/04/07 05:18:41;;;;;;;7.77;0.67;;;9.90;99.90;;;;;;5047600;28;20186;-76
2022/04/07 05:21:07;;;;;;;1.33;0.40;;;9.90;99.90;;;;;;5029319;28;20422;-76
2022/04/07 05:23:32;;;;;;;0.70;0.40;;;10.00;99.90;;;;;;5047593;28;20427;-76
2022/04/07 05:25:58;;;;;;;0.60;0.30;;;10.00;99.90;;;;;;5047585;28;20200;-76
2022/04/07 05:28:24;;;;;;;0.63;0.43;;;10.10;99.90;;;;;;5029320;28;20653;-76
2022/04/07 05:30:49;;;;;;;0.60;0.40;;;10.10;99.90;;;;;;5047125;28;20188;-76
2022/04/07 05:33:17;;;;;;;0.77;0.40;;;10.10;99.90;;;;;;5045691;28;20189;-75
2022/04/07 05:35:43;;;;;;;1.20;0.40;;;10.20;99.90;;;;;;5045734;28;20292;-74
2022/04/07 05:38:09;;;;;;;3.53;0.40;;;10.20;99.90;;;;;;5047180;28;20762;-76
2022/04/07 05:40:34;;;;;;;1.70;0.40;;;10.20;99.90;;;;;;5048115;28;20202;-76
2022/04/07 05:43:01;;;;;;;1.00;0.50;;;10.20;99.90;;;;;;5050860;28;20411;-76
2022/04/07 05:45:27;;;;;;;2.80;0.40;;;10.20;99.90;;;;;;5050990;28;20672;-75
2022/04/07 05:47:53;;;;;;;1.60;0.80;;;10.20;99.90;;;;;;5051010;28;20422;-75
2022/04/07 05:50:19;;;;;;;0.70;0.40;;;10.20;99.90;;;;;;5050996;28;20714;-76
2022/04/07 05:52:44;;;;;;;0.90;0.60;;;10.30;99.90;;;;;;5051067;28;20180;-76
2022/04/07 05:55:10;;;;;;;0.60;0.30;;;10.30;99.90;;;;;;5050890;28;20216;-76
2022/04/07 05:57:36;;;;;;;0.97;0.50;;;10.40;99.90;;;;;;5051301;28;20188;-76
2022/04/07 06:00:11;;;;;;;1.17;0.40;;;10.50;99.90;;;;;;5050698;28;20259;-75
2022/04/07 06:02:37;;;;;;;1.90;0.40;;;10.40;99.90;;;;;;5050949;28;20228;-76
2022/04/07 06:05:07;;;;;;;0.70;0.50;;;10.50;99.90;;;;;;5050463;28;21348;-76
2022/04/07 06:07:33;;;;;;;0.70;0.40;;;10.60;99.90;;;;;;5050772;28;20426;-76
2022/04/07 06:09:59;;;;;;;0.60;0.30;;;10.60;99.90;;;;;;5050804;28;20434;-74
2022/04/07 06:12:24;;;;;;;0.70;0.40;;;10.60;99.90;;;;;;5051276;28;20722;-75
2022/04/07 06:14:50;;;;;;;3.13;0.40;;;10.60;99.90;;;;;;5032456;28;20570;-76
2022/04/07 06:17:16;;;;;;;0.60;0.33;;;10.60;99.90;;;;;;5050571;28;20271;-74
2022/04/07 06:19:41;;;;;;;0.70;0.40;;;10.70;99.90;;;;;;5049253;28;20190;-74
2022/04/07 06:22:07;;;;;;;0.70;0.40;;;10.70;99.90;;;;;;5050616;28;20367;-74
2022/04/07 06:24:36;;;;;;;0.70;0.30;;;10.80;99.90;;;;;;5050692;28;20249;-75
2022/04/07 06:27:01;;;;;;;0.70;0.50;;;10.80;99.90;;;;;;5050700;28;20216;-74
2022/04/07 06:29:27;;;;;;;1.47;0.40;;;10.90;99.90;;;;;;5051471;28;20418;-75
2022/04/07 06:31:53;;;;;;;2.53;0.50;;;10.90;99.90;;;;;;5051372;28;20594;-75
2022/04/07 06:34:20;;;;;;;0.70;0.40;;;11.00;99.90;;;;;;5050081;28;20286;-75
2022/04/07 06:36:47;;;;;;;2.27;0.70;;;11.10;99.90;;;;;;5048492;28;20231;-75
2022/04/07 06:39:13;;;;;;;0.70;0.40;;;11.20;99.90;;;;;;5050033;28;20944;-75
2022/04/07 06:41:38;;;;;;;2.40;0.70;;;11.10;99.90;;;;;;5048704;28;20466;-75
2022/04/07 06:44:04;;;;;;;0.70;0.40;;;11.10;99.90;;;;;;5049707;28;20188;-75
2022/04/07 06:46:32;;;;;;;0.90;0.30;;;11.20;99.90;;;;;;5049637;28;20205;-75
2022/04/07 06:48:58;;;;;;;1.20;0.47;;;11.20;99.90;;;;;;5049698;28;20176;-75
2022/04/07 06:51:24;;;;;;;0.70;0.40;;;11.10;99.90;;;;;;5048053;28;20945;-75
2022/04/07 06:53:50;;;;;;;0.60;0.40;;;11.30;99.90;;;;;;5047994;28;20455;-75
2022/04/07 06:56:16;;;;;;;0.70;0.40;;;11.50;99.90;;;;;;5049538;28;20856;-75
2022/04/07 06:58:41;;;;;;;1.23;0.40;;;11.50;99.90;;;;;;5049404;28;20649;-75
2022/04/07 07:01:08;;;;;;;0.83;0.40;;;11.50;99.90;;;;;;5049545;28;20650;-75
2022/04/07 07:03:34;;;;;;;0.60;0.40;;;11.60;99.90;;;;;;5052990;28;20246;-75
2022/04/07 07:06:00;;;;;;;1.00;0.50;;;11.60;99.90;;;;;;5049442;28;20924;-75
2022/04/07 07:08:26;;;;;;;9.77;0.60;;;11.80;99.90;;;;;;5050590;28;20191;-75
2022/04/07 07:10:52;;;;;;;0.73;0.50;;;11.80;99.90;;;;;;5049399;28;20205;-75
2022/04/07 07:13:20;;;;;;;0.70;0.40;;;11.70;99.90;;;;;;5048984;28;20928;-76
2022/04/07 07:15:46;;;;;;;0.60;0.40;;;11.70;99.90;;;;;;5049131;28;20444;-75
2022/04/07 07:18:12;;;;;;;1.63;0.60;;;11.70;99.90;;;;;;5048813;28;20417;-75
2022/04/07 07:20:38;;;;;;;0.90;0.50;;;11.60;99.90;;;;;;5048768;28;20456;-75
2022/04/07 07:23:04;;;;;;;0.80;0.40;;;11.70;99.90;;;;;;5048519;28;20421;-74
2022/04/07 07:25:31;;;;;;;1.97;0.47;;;11.70;99.90;;;;;;5048435;28;20205;-75
2022/04/07 07:27:58;;;;;;;2.23;0.40;;;11.50;99.90;;;;;;5048423;28;20540;-75
2022/04/07 07:30:24;;;;;;;1.13;0.40;;;11.50;99.90;;;;;;5048441;28;20431;-74
2022/04/07 07:32:51;;;;;;;1.00;0.40;;;11.50;99.90;;;;;;5046902;28;20429;-74
2022/04/07 07:35:18;;;;;;;1.90;0.40;;;11.50;99.90;;;;;;5048447;28;20615;-76
2022/04/07 07:38:01;;;;;;;2.60;0.57;;;11.60;99.90;;;;;;5048331;28;20854;-75
2022/04/07 07:40:29;;;;;;;0.60;0.30;;;11.70;99.90;;;;;;5048231;28;20503;-75
2022/04/07 07:43:00;;;;;;;0.90;0.63;;;11.90;99.90;;;;;;5048439;28;20423;-75
2022/04/07 07:45:27;;;;;;;2.03;0.47;;;11.90;99.90;;;;;;5046469;28;20455;-75
2022/04/07 07:47:53;;;;;;;1.67;0.73;;;11.90;99.90;;;;;;5048150;28;20861;-75
2022/04/07 07:50:19;;;;;;;0.70;0.70;;;11.90;99.90;;;;;;5047718;28;20411;-75
2022/04/07 07:52:45;;;;;;;3.00;0.50;;;11.90;99.90;;;;;;5046142;28;20424;-75
2022/04/07 07:55:11;;;;;;;1.10;0.40;;;11.90;99.90;;;;;;5045911;28;20993;-75
2022/04/07 07:57:36;;;;;;;3.23;0.43;;;11.90;99.90;;;;;;5047541;28;20715;-75
2022/04/07 08:00:07;;;;;;;0.80;0.50;;;11.90;99.90;;;;;;5047530;28;20177;-75
2022/04/07 08:02:34;;;;;;;0.80;0.50;;;12.00;99.90;;;;;;5047281;28;20181;-75
2022/04/07 08:05:00;;;;;;;3.47;0.50;;;12.10;99.90;;;;;;5046943;28;20551;-75
2022/04/07 08:07:27;;;;;;;1.00;0.60;;;12.10;99.90;;;;;;5047321;28;20423;-75
2022/04/07 08:09:54;;;;;;;0.80;0.60;;;12.10;99.90;;;;;;5047314;28;20420;-75
2022/04/07 08:12:20;;;;;;;6.83;0.80;;;12.10;99.90;;;;;;5047680;28;20440;-75
2022/04/07 08:14:46;;;;;;;3.03;0.60;;;12.10;99.90;;;;;;5047549;28;20487;-75
2022/04/07 08:17:11;;;;;;;0.90;0.50;;;12.20;99.90;;;;;;5045869;28;20210;-76
2022/04/07 08:19:37;;;;;;;0.90;0.50;;;12.20;99.90;;;;;;5047792;28;20204;-75
2022/04/07 08:22:03;;;;;;;4.00;0.50;;;12.10;99.90;;;;;;5047345;28;20190;-75
2022/04/07 08:24:29;;;;;;;1.03;0.50;;;12.00;99.90;;;;;;5047004;28;20188;-75
2022/04/07 08:26:54;;;;;;;1.60;0.50;;;12.00;99.90;;;;;;5045852;28;20416;-75
2022/04/07 08:29:20;;;;;;;1.03;0.40;;;12.20;99.90;;;;;;5047040;28;20687;-75
2022/04/07 08:31:45;;;;;;;1.67;0.40;;;12.20;99.90;;;;;;5047001;28;20284;-75
2022/04/07 08:34:11;;;;;;;1.00;0.50;;;12.20;99.90;;;;;;5046839;28;20217;-75
2022/04/07 08:36:37;;;;;;;1.23;0.50;;;12.40;99.90;;;;;;5047266;28;20204;-75
2022/04/07 08:39:03;;;;;;;0.70;0.50;;;12.70;99.90;;;;;;5046996;28;20208;-75
2022/04/07 08:41:34;;;;;;;2.90;0.40;;;12.80;99.90;;;;;;5046765;28;20591;-75
2022/04/07 08:43:59;;;;;;;1.47;0.50;;;12.70;99.70;;;;;;5046758;28;20187;-74
2022/04/07 08:46:26;;;;;;;1.37;0.33;;;12.80;99.70;;;;;;5046539;28;20446;-75
2022/04/07 08:48:55;;;;;;;0.70;0.40;;;12.80;99.60;;;;;;5046746;28;20182;-76
2022/04/07 08:51:21;;;;;;;1.37;0.50;;;13.00;99.90;;;;;;5046764;28;20433;-75
2022/04/07 08:53:47;;;;;;;0.80;0.40;;;13.10;99.90;;;;;;5046618;28;20855;-75
2022/04/07 08:56:13;;;;;;;1.00;0.50;;;13.10;99.90;;;;;;5045340;28;20453;-75
2022/04/07 08:58:38;;;;;;;1.07;0.53;;;13.30;99.90;;;;;;5046699;28;20182;-76
2022/04/07 09:01:04;;;;;;;1.27;0.70;;;13.40;99.90;;;;;;5046694;28;20474;-75
2022/04/07 09:03:30;;;;;;;2.50;0.50;;;13.70;99.90;;;;;;5045269;28;20266;-76
2022/04/07 09:06:01;;;;;;;0.77;0.47;;;13.60;98.50;;;;;;5046649;28;20444;-74
2022/04/07 09:08:38;;;;;;;1.53;0.40;;;13.70;99.20;;;;;;5047240;28;20580;-76
2022/04/07 09:11:08;;;;;;;0.90;0.70;;;13.70;97.80;;;;;;5046900;28;20486;-74
2022/04/07 09:13:39;;;;;;;0.90;0.43;;;13.80;98.90;;;;;;5046919;28;20414;-75
2022/04/07 09:16:07;;;;;;;0.70;0.40;;;13.70;98.20;;;;;;5049085;28;20449;-75
2022/04/07 09:18:37;;;;;;;7.37;1.17;;;13.60;98.60;;;;;;5051150;28;20478;-75
2022/04/07 09:21:04;;;;;;;0.70;0.40;;;13.70;99.10;;;;;;5051056;28;20449;-75
2022/04/07 09:23:40;;;;;;;2.20;0.40;;;13.40;98.30;;;;;;5051004;28;20544;-75
2022/04/07 09:26:10;;;;;;;0.83;0.40;;;13.20;99.70;;;;;;5050852;28;20448;-75
2022/04/07 09:28:36;;;;;;;0.60;0.40;;;13.10;99.60;;;;;;5050927;28;20946;-75
2022/04/07 09:31:02;;;;;;;0.73;0.40;;;12.80;99.90;;;;;;5050217;28;20508;-75
2022/04/07 09:33:30;;;;;;;0.60;0.40;;;12.70;99.90;;;;;;5048468;28;20193;-75
2022/04/07 09:36:25;;;;;;;1.70;0.53;;;12.60;99.90;;;;;;5050429;28;20203;-75
2022/04/07 09:38:52;;;;;;;2.93;0.40;;;12.50;99.90;;;;;;5037119;28;20497;-75
2022/04/07 09:41:21;;;;;;;0.70;0.43;;;12.60;99.90;;;;;;5050069;28;20415;-75
2022/04/07 09:43:59;;;;;;;0.80;0.50;;;12.80;99.90;;;;;;5050105;28;20416;-75
2022/04/07 09:46:35;;;;;;;2.30;0.40;;;13.00;99.90;;;;;;5050114;28;21001;-76
2022/04/07 09:49:01;;;;;;;0.97;0.50;;;13.10;99.90;;;;;;5051568;28;20436;-75
2022/04/07 09:51:28;;;;;;;0.70;0.50;;;13.10;99.90;;;;;;5050781;28;20429;-74
2022/04/07 09:53:55;;;;;;;1.90;0.50;;;13.30;99.90;;;;;;5048992;28;20215;-75
2022/04/07 09:56:24;;;;;;;0.87;0.60;;;13.20;98.70;;;;;;5051460;28;20445;-75
2022/04/07 09:58:53;;;;;;;3.73;0.60;;;13.20;99.50;;;;;;5049856;28;20454;-75
2022/04/07 10:01:18;;;;;;;1.30;0.50;;;13.10;99.90;;;;;;5032053;28;20432;-75
2022/04/07 10:03:44;;;;;;;1.80;0.40;;;12.80;99.60;;;;;;5049868;28;20535;-75
2022/04/07 10:06:14;;;;;;;1.23;0.50;;;12.80;99.90;;;;;;5049687;28;20255;-75
2022/04/07 10:08:41;;;;;;;2.30;0.40;;;12.70;99.90;;;;;;5050028;28;20924;-75
2022/04/07 10:11:08;;;;;;;1.73;0.50;;;12.70;99.90;;;;;;5051370;28;20435;-73
2022/04/07 10:13:37;;;;;;;1.17;0.40;;;12.70;99.90;;;;;;5050824;28;20929;-75
2022/04/07 10:16:03;;;;;;;1.20;0.80;;;12.70;99.90;;;;;;5048124;28;20526;-75
2022/04/07 10:18:33;;;;;;;0.90;0.43;;;12.70;99.90;;;;;;5049745;28;20444;-75
2022/04/07 10:20:59;;;;;;;1.13;0.50;;;12.80;99.90;;;;;;5049709;28;20423;-75
2022/04/07 10:23:43;;;;;;;1.07;0.43;;;12.90;99.90;;;;;;5049660;28;20515;-75
2022/04/07 10:26:11;;;;;;;0.80;0.40;;;13.00;99.90;;;;;;5049016;28;20451;-76
2022/04/07 10:28:36;;;;;;;0.60;0.30;;;13.10;99.90;;;;;;5049694;28;20786;-75
2022/04/07 10:31:12;;;;;;;1.00;0.47;;;13.10;99.90;;;;;;5049785;28;20426;-76
2022/04/07 10:33:42;;;;;;;0.90;0.37;;;13.10;99.90;;;;;;5049784;28;20192;-75
2022/04/07 10:36:22;;;;;;;0.60;0.40;;;13.20;99.90;;;;;;5049617;28;20444;-75
2022/04/07 10:38:54;;;;;;;1.80;0.40;;;13.20;99.90;;;;;;5049886;28;20982;-74
2022/04/07 10:41:38;;;;;;;1.53;0.40;;;13.30;99.90;;;;;;5048259;28;20429;-75
2022/04/07 10:44:23;;;;;;;1.90;0.40;;;13.30;99.70;;;;;;5049985;28;20501;-75
2022/04/07 10:46:49;;;;;;;1.30;0.40;;;13.20;99.00;;;;;;5049919;28;20437;-75
2022/04/07 10:49:24;;;;;;;1.20;0.40;;;13.30;99.80;;;;;;5049707;28;20432;-74
2022/04/07 10:51:54;;;;;;;6.57;0.43;;;13.10;99.30;;;;;;5051540;28;20538;-74
2022/04/07 10:54:21;;;;;;;0.70;0.30;;;13.30;99.90;;;;;;5050998;28;20547;-76
2022/04/07 10:56:49;;;;;;;0.90;0.40;;;13.40;99.20;;;;;;5049443;28;20440;-75
2022/04/07 10:59:20;;;;;;;0.70;0.40;;;13.40;99.60;;;;;;5047689;28;20429;-76
2022/04/07 11:01:46;;;;;;;0.70;0.40;;;13.30;99.50;;;;;;5049312;28;21303;-75
2022/04/07 11:04:18;;;;;;;0.60;0.30;;;13.30;99.60;;;;;;5049157;28;20888;-75
2022/04/07 11:07:05;;;;;;;0.60;0.30;;;13.30;99.80;;;;;;5049494;28;20263;-75
2022/04/07 11:09:44;;;;;;;2.40;0.40;;;13.20;99.10;;;;;;5049483;28;20423;-75
2022/04/07 11:12:11;;;;;;;1.47;0.40;;;13.20;99.90;;;;;;5049693;28;20524;-76
2022/04/07 11:14:37;;;;;;;0.60;0.30;;;13.30;99.90;;;;;;5065666;28;20538;-76
2022/04/07 11:17:06;;;;;;;0.70;0.40;;;13.30;99.70;;;;;;5068942;28;20845;-76
2022/04/07 11:20:04;;;;;;;4.93;0.40;;;13.30;99.90;;;;;;5048845;28;20446;-76
2022/04/07 11:22:48;;;;;;;0.80;0.40;;;13.40;99.20;;;;;;5049870;28;20819;-75
2022/04/07 11:25:19;;;;;;;0.70;0.40;;;13.50;99.70;;;;;;5048873;28;20444;-75
2022/04/07 11:27:45;;;;;;;0.60;0.30;;;13.40;99.30;;;;;;5047528;28;20552;-74
2022/04/07 11:30:13;;;;;;;0.70;0.40;;;13.30;99.70;;;;;;5048448;28;20901;-75
2022/04/07 11:33:00;;;;;;;0.70;0.40;;;13.30;99.90;;;;;;5048286;28;20433;-75
2022/04/07 11:35:26;;;;;;;0.60;0.30;;;13.30;99.80;;;;;;5048180;28;20509;-75
2022/04/07 11:37:52;;;;;;;1.60;0.40;;;13.20;99.90;;;;;;5047270;28;20502;-74
2022/04/07 11:40:17;;;;;;;2.30;0.57;;;13.20;99.90;;;;;;5048377;28;20198;-74
2022/04/07 11:42:43;;;;;;;0.60;0.30;;;13.40;99.90;;;;;;5048069;28;20186;-74
2022/04/07 11:45:09;;;;;;;1.07;0.30;;;13.40;99.90;;;;;;5048375;28;20210;-75
2022/04/07 11:47:38;;;;;;;0.70;0.37;;;13.40;99.90;;;;;;5048838;28;20186;-75
2022/04/07 11:50:08;;;;;;;1.00;0.50;;;13.50;99.90;;;;;;5049238;28;20436;-75
2022/04/07 11:52:35;;;;;;;0.90;0.50;;;13.40;99.90;;;;;;5049271;28;20435;-75
2022/04/07 11:55:03;;;;;;;0.70;0.37;;;13.40;99.90;;;;;;5048857;28;20998;-74
2022/04/07 11:57:30;;;;;;;0.80;0.33;;;13.40;99.90;;;;;;5047019;28;20437;-75
2022/04/07 12:00:07;;;;;;;2.30;0.40;;;13.40;99.90;;;;;;5065471;28;20955;-75
2022/04/07 12:02:33;;;;;;;0.60;0.30;;;13.50;99.90;;;;;;5065548;28;20416;-75
2022/04/07 12:05:00;;;;;;;0.60;0.30;;;13.60;99.90;;;;;;5063811;28;20502;-75
2022/04/07 12:07:27;;;;;;;0.73;0.30;;;13.50;99.90;;;;;;5063719;28;20260;-74
2022/04/07 12:09:56;;;;;;;2.93;0.40;;;13.40;99.90;;;;;;5065078;28;20408;-74
2022/04/07 12:12:23;;;;;;;1.27;0.50;;;13.50;99.90;;;;;;5063389;28;20508;-74
2022/04/07 12:14:49;;;;;;;0.60;0.30;;;13.40;99.90;;;;;;5064662;28;20432;-75
2022/04/07 12:17:15;;;;;;;0.90;0.40;;;13.40;99.90;;;;;;5047065;28;21289;-75
2022/04/07 12:19:47;;;;;;;1.43;0.30;;;13.40;99.90;;;;;;5063585;28;20460;-75
2022/04/07 12:22:15;;;;;;;0.77;0.30;;;13.30;99.90;;;;;;5064755;28;20181;-73
2022/04/07 12:25:04;;;;;;;0.60;0.30;;;13.30;99.90;;;;;;5064871;28;20796;-76
2022/04/07 12:27:31;;;;;;;0.60;0.30;;;13.10;99.90;;;;;;5063199;28;20410;-74
2022/04/07 12:29:59;;;;;;;0.70;0.40;;;13.10;99.90;;;;;;5064598;28;20421;-73
2022/04/07 12:32:26;;;;;;;1.13;0.40;;;13.00;99.90;;;;;;5063186;28;20422;-76
2022/04/07 12:34:52;;;;;;;0.60;0.30;;;13.10;99.90;;;;;;5064678;28;20441;-74
2022/04/07 12:37:39;;;;;;;2.50;0.50;;;12.80;99.90;;;;;;5064567;28;20502;-75
2022/04/07 12:40:15;;;;;;;1.63;0.40;;;13.10;99.90;;;;;;5063013;28;20501;-75
2022/04/07 12:43:10;;;;;;;0.60;0.30;;;13.10;99.90;;;;;;5064431;28;20417;-74
2022/04/07 12:45:35;;;;;;;0.70;0.30;;;13.10;99.90;;;;;;5063618;28;20466;-73
2022/04/07 12:48:01;;;;;;;0.60;0.30;;;13.20;99.90;;;;;;5063331;28;20421;-74
2022/04/07 12:50:27;;;;;;;1.20;0.33;;;13.30;99.90;;;;;;5064425;28;20181;-73
2022/04/07 12:52:53;;;;;;;2.23;0.30;;;13.20;99.90;;;;;;5064222;28;20186;-73